Stations météo

réclame
Mon MeteoGroup
Motril, Espagne (8485): Température de l'air & dewpoint: 08.08.2020 22:00:00 - 14.08.2020 22:00:00 (CEST)Motril, Espagne (8485): Vitesse du vent & gusts: 08.08.2020 22:00:00 - 14.08.2020 22:00:00 (CEST)Motril, Espagne (8485): Direction du vent: 08.08.2020 22:00:00 - 14.08.2020 22:00:00 (CEST)Motril, Espagne (8485): reduced air pressure: 08.08.2020 22:00:00 - 14.08.2020 22:00:00 (CEST)Motril, Espagne (8485): Quantités de précipitations: 08.08.2020 22:00:00 - 14.08.2020 22:00:00 (CEST)
Date & Time tt [°C] td [°C] ff [km/h] ff [knt] fx [km/h] fx [knt] dd ppp [hPa] rr [mm]
14.08.2020 22:00:00 - - - - - - - - -
14.08.2020 21:00:00 26,4 20,0 0 0 11 6 E 1012,3 0,0
14.08.2020 20:00:00 26,7 20,8 6 3 15 8 SSW 1011,9 -
14.08.2020 19:00:00 27,6 19,4 7 4 15 8 W 1012,0 0,0
14.08.2020 18:00:00 27,5 21,5 6 4 19 11 SW 1012,2 0,0
14.08.2020 17:00:00 27,6 21,6 9 5 19 10 SW 1012,6 0,0
14.08.2020 16:00:00 26,7 22,3 10 6 18 10 SSW 1013,4 0,0
14.08.2020 15:00:00 26,8 22,4 13 7 21 11 SSW 1013,6 0,0
14.08.2020 14:00:00 26,9 22,3 9 5 14 8 SSW 1014,3 -
14.08.2020 13:00:00 26,4 22,0 9 5 13 7 S 1014,3 0,0
14.08.2020 12:00:00 26,5 22,1 6 4 12 7 S 1014,5 0,0
14.08.2020 11:00:00 26,6 20,9 10 5 14 7 S 1014,4 0,0
14.08.2020 10:00:00 29,3 18,8 1 1 5 3 S 1014,1 0,0
14.08.2020 09:00:00 26,6 18,2 0 0 6 3 NE 1013,9 0,0
14.08.2020 08:00:00 20,5 16,3 4 2 9 5 NNW 1013,2 -
14.08.2020 07:00:00 20,6 16,4 1 1 9 5 NE 1012,8 0,0
14.08.2020 06:00:00 21,5 17,3 4 2 9 5 NE 1012,8 0,0
14.08.2020 05:00:00 20,7 15,3 6 3 8 4 N 1012,7 0,0
14.08.2020 04:00:00 21,1 18,1 3 1 6 3 WNW 1013,0 0,0
14.08.2020 03:00:00 21,0 16,8 1 1 4 2 ENE 1013,5 0,0
14.08.2020 02:00:00 21,8 18,8 4 2 9 5 N 1014,0 -
14.08.2020 01:00:00 22,9 21,0 4 2 8 4 NW 1014,9 0,0
14.08.2020 00:00:00 22,8 19,6 4 2 11 6 NNW 1015,2 0,0
13.08.2020 23:00:00 23,8 18,0 0 0 8 4 NE 1014,5 0,0
13.08.2020 22:00:00 24,9 21,4 2 1 6 4 N 1014,3 0,0
13.08.2020 21:00:00 25,9 20,3 3 2 14 8 W 1013,9 0,0
13.08.2020 20:00:00 27,5 20,1 4 2 16 9 W 1013,3 -
13.08.2020 19:00:00 27,2 20,1 7 4 16 8 SW 1013,1 0,0
13.08.2020 18:00:00 26,8 19,9 8 4 19 10 WSW 1013,1 0,0
13.08.2020 17:00:00 26,7 21,9 10 5 18 10 SSW 1013,8 0,0
13.08.2020 16:00:00 26,2 22,7 11 6 18 10 SSW 1014,4 0,0
13.08.2020 15:00:00 26,3 22,7 13 7 22 12 SSW 1014,7 0,0
13.08.2020 14:00:00 27,3 22,5 12 6 22 12 SSW 1014,9 -
13.08.2020 13:00:00 26,5 22,3 11 6 22 12 SSW 1015,2 0,0
13.08.2020 12:00:00 26,4 21,8 12 6 23 12 SSW 1015,2 0,0
13.08.2020 11:00:00 26,5 19,1 9 5 16 9 W 1014,9 0,0
13.08.2020 10:00:00 26,7 18,8 5 3 9 5 SSW 1015,0 0,0
13.08.2020 09:00:00 26,4 21,2 0 0 11 6 SE 1015,0 0,0
13.08.2020 08:00:00 21,6 20,1 4 2 8 5 NE 1015,2 -
13.08.2020 07:00:00 21,4 19,5 1 1 9 5 NE 1014,8 0,0
13.08.2020 06:00:00 20,9 17,1 1 0 15 8 NNE 1013,6 0,0
13.08.2020 05:00:00 21,9 16,1 8 4 17 9 NW 1012,9 0,0
13.08.2020 04:00:00 21,7 18,1 4 2 7 4 N 1013,7 0,0
13.08.2020 03:00:00 21,6 19,1 4 2 14 8 NE 1014,3 0,0
13.08.2020 02:00:00 23,2 20,5 8 4 15 8 W 1014,5 -
13.08.2020 01:00:00 23,3 18,8 4 2 14 7 WNW 1014,6 0,0
13.08.2020 00:00:00 23,7 20,9 1 1 16 9 NW 1014,8 0,0
12.08.2020 23:00:00 24,8 21,3 6 3 14 8 W 1015,0 0,0
12.08.2020 22:00:00 25,2 21,5 6 3 16 8 W 1014,1 0,0
12.08.2020 21:00:00 25,8 20,8 4 2 22 12 W 1013,3 0,0
12.08.2020 20:00:00 26,0 20,3 9 5 22 12 WSW 1013,2 -
12.08.2020 19:00:00 26,4 20,3 9 5 23 12 WSW 1013,3 0,0
12.08.2020 18:00:00 27,5 20,6 6 3 22 12 W 1013,7 0,0
12.08.2020 17:00:00 26,8 20,9 12 6 39 21 SSW 1014,2 0,0
12.08.2020 16:00:00 27,1 20,5 9 5 18 10 SSW 1014,7 0,0
12.08.2020 15:00:00 26,5 20,6 12 6 21 11 SSW 1015,0 0,0
12.08.2020 14:00:00 26,3 20,9 13 7 23 12 SSW 1015,2 -
12.08.2020 13:00:00 26,0 21,6 14 8 26 14 SW 1015,3 0,0
12.08.2020 12:00:00 26,8 22,4 10 5 23 12 SSW 1015,0 0,0
12.08.2020 11:00:00 26,6 23,3 8 4 16 8 SW 1014,7 0,0
12.08.2020 10:00:00 24,6 22,9 9 5 17 9 SW 1014,7 0,0
12.08.2020 09:00:00 24,3 22,6 8 4 16 9 WSW 1014,4 0,0
12.08.2020 08:00:00 23,3 22,3 1 1 10 5 WNW 1013,9 -
12.08.2020 07:00:00 23,4 22,0 5 3 19 11 W 1013,4 0,0
12.08.2020 06:00:00 23,7 22,7 6 3 14 7 WSW 1013,3 0,0
12.08.2020 05:00:00 24,3 23,5 5 3 14 8 W 1013,4 0,0
12.08.2020 04:00:00 24,4 23,6 7 4 16 9 WSW 1013,0 0,0
12.08.2020 03:00:00 25,4 24,7 6 3 14 8 WSW 1013,0 0,0
12.08.2020 02:00:00 25,6 25,1 3 2 9 5 WSW 1012,6 -
12.08.2020 01:00:00 25,8 24,9 4 2 8 5 S 1012,4 0,0
12.08.2020 00:00:00 26,2 25,2 4 2 8 4 W 1013,0 0,0
11.08.2020 23:00:00 26,5 25,1 4 2 11 6 S 1012,6 0,0
11.08.2020 22:00:00 26,2 24,8 6 3 17 9 W 1011,9 0,0
11.08.2020 21:00:00 26,7 24,4 8 5 17 9 SW 1011,0 0,0
11.08.2020 20:00:00 27,9 24,4 4 2 18 10 W 1010,3 -
11.08.2020 19:00:00 27,5 24,1 9 5 18 10 SSW 1010,3 0,0
11.08.2020 18:00:00 27,9 24,5 9 5 19 10 SSW 1010,1 0,0
11.08.2020 17:00:00 27,7 23,5 11 6 16 9 S 1010,7 0,0
11.08.2020 16:00:00 27,4 23,9 8 4 21 11 SW 1011,3 0,0
11.08.2020 15:00:00 27,4 23,9 9 5 26 14 WSW 1011,8 0,0
11.08.2020 14:00:00 28,6 24,2 21 11 31 17 SSE 1011,1 -
11.08.2020 13:00:00 28,8 23,9 24 13 34 18 ESE 1010,7 0,0
11.08.2020 12:00:00 28,3 24,5 21 11 35 19 E 1011,1 0,0
11.08.2020 11:00:00 29,2 23,9 1 1 34 19 ENE 1010,6 0,0
11.08.2020 10:00:00 27,9 24,1 16 9 29 15 ESE 1010,3 0,0
11.08.2020 09:00:00 26,3 21,3 10 5 21 12 WNW 1009,7 0,0
11.08.2020 08:00:00 25,9 23,4 3 2 10 5 E 1011,1 -
11.08.2020 07:00:00 26,1 23,2 7 4 11 6 S 1010,7 0,0
11.08.2020 06:00:00 25,9 24,1 3 2 29 16 WNW 1009,8 0,0
11.08.2020 05:00:00 25,9 20,3 4 2 13 7 W 1009,5 0,0
11.08.2020 04:00:00 25,6 20,4 3 2 10 5 NNW 1009,1 0,0
11.08.2020 03:00:00 26,5 20,8 5 3 14 8 ESE 1009,7 0,0
11.08.2020 02:00:00 26,5 22,1 6 4 15 8 NW 1010,8 -
11.08.2020 01:00:00 27,7 21,3 2 1 16 8 NE 1010,9 0,0
11.08.2020 00:00:00 27,1 22,1 5 3 15 8 NE 1011,7 0,0
10.08.2020 23:00:00 26,7 22,3 10 5 22 12 N 1013,3 0,0
10.08.2020 22:00:00 26,6 22,3 4 2 14 8 NNE 1014,3 0,0
10.08.2020 21:00:00 26,7 22,3 2 1 26 14 W 1012,9 0,0
10.08.2020 20:00:00 26,8 23,3 13 7 32 17 SW 1011,0 -
10.08.2020 19:00:00 28,5 23,4 10 5 22 12 SSE 1008,7 0,0
10.08.2020 18:00:00 27,8 23,2 10 5 32 17 SSW 1009,4 0,0
10.08.2020 17:00:00 28,3 22,5 6 3 29 16 W 1009,5 0,0
10.08.2020 16:00:00 27,6 22,6 5 3 28 15 NNE 1011,0 0,0
10.08.2020 15:00:00 27,7 22,6 13 7 28 15 SE 1011,9 0,0
10.08.2020 14:00:00 27,8 23,4 10 5 22 12 SW 1011,6 -
10.08.2020 13:00:00 28,4 23,7 17 9 28 15 ESE 1010,9 0,0
10.08.2020 12:00:00 32,3 24,4 1 0 17 9 SW 1011,3 0,0
10.08.2020 11:00:00 27,2 24,5 10 6 22 12 SW 1012,7 0,0
10.08.2020 10:00:00 27,8 24,0 6 3 11 6 S 1012,0 0,0
10.08.2020 09:00:00 25,7 24,8 3 2 9 5 NE 1012,4 0,0
10.08.2020 08:00:00 25,1 24,4 6 3 20 11 W 1012,6 -
10.08.2020 07:00:00 23,6 22,0 4 2 8 5 W 1011,8 0,0
10.08.2020 06:00:00 25,3 23,0 4 2 8 5 WSW 1011,2 0,0
10.08.2020 05:00:00 24,2 21,7 1 1 10 5 NW 1011,2 0,0
10.08.2020 04:00:00 24,4 22,3 2 1 9 5 N 1012,1 0,0
10.08.2020 03:00:00 24,9 22,2 3 2 7 4 E 1012,3 0,0
10.08.2020 02:00:00 25,3 22,4 3 1 8 5 NW 1012,7 -
10.08.2020 01:00:00 25,9 23,0 1 1 11 6 SW 1013,1 0,1
10.08.2020 00:00:00 26,3 22,0 5 3 10 6 W 1013,3 0,0
09.08.2020 23:00:00 26,4 22,0 4 2 6 3 E 1013,0 0,0
09.08.2020 22:00:00 26,4 21,6 3 2 11 6 NE 1012,8 0,0
09.08.2020 21:00:00 26,9 21,9 4 2 9 5 SW 1013,0 0,0
09.08.2020 20:00:00 28,1 21,6 5 3 12 6 S 1012,9 -
09.08.2020 19:00:00 28,6 21,9 8 4 14 8 SSW 1012,8 0,0
09.08.2020 18:00:00 29,0 21,5 6 4 16 9 SSW 1013,1 0,0
09.08.2020 17:00:00 28,9 21,6 9 5 17 9 SSW 1013,7 0,0
09.08.2020 16:00:00 28,2 22,4 11 6 17 9 SSW 1014,4 0,0
09.08.2020 15:00:00 27,5 23,1 10 6 16 9 SSW 1014,9 0,0
09.08.2020 14:00:00 27,3 21,6 10 5 15 8 SSW 1015,6 -
09.08.2020 13:00:00 28,5 20,8 9 5 17 9 SSW 1016,0 0,0
09.08.2020 12:00:00 28,4 21,4 9 5 16 9 SSW 1016,0 0,0
09.08.2020 11:00:00 27,7 20,8 10 5 16 8 SSW 1015,8 0,0
09.08.2020 10:00:00 27,7 22,4 5 3 9 5 SSW 1016,1 0,0
09.08.2020 09:00:00 26,5 21,7 4 2 8 4 SSW 1015,8 0,0
09.08.2020 08:00:00 22,8 21,3 5 3 10 5 NNE 1015,8 -
09.08.2020 07:00:00 23,0 20,7 3 2 8 5 NE 1016,0 0,0
09.08.2020 06:00:00 23,6 22,4 4 2 9 5 N 1015,9 0,0
09.08.2020 05:00:00 23,3 22,4 5 3 9 5 NW 1015,8 0,0
09.08.2020 04:00:00 23,3 22,0 0 0 6 3 N 1015,4 0,0
09.08.2020 03:00:00 23,7 22,1 4 2 8 4 NNW 1016,0 0,0
09.08.2020 02:00:00 24,2 22,6 1 1 5 3 E 1016,3 -
09.08.2020 01:00:00 24,8 22,9 3 2 5 3 NE 1016,8 0,0
09.08.2020 00:00:00 25,5 23,0 2 1 6 3 NNW 1017,5 0,0
08.08.2020 23:00:00 26,0 23,7 2 1 6 3 SW 1017,3 0,0
08.08.2020 22:00:00 26,1 23,4 3 2 8 4 SSW 1016,8 0,0

tt = Température de l'air
td = dewpoint
ff = Vitesse du vent
fx = gusts
dd = Direction du vent
ppp = reduced air pressure
rr = Quantités de précipitations

stations d'obs. à proximité